首页
METAR-TAF:

METAR-TAF

机场 :

拿骚, 巴哈马

林丁平德林国际机场

纬度: 25-03N, 经度: 077-28W, 海拔: 3米

当前天气观测

该预报发布于33分钟前的14:00 UTC
风速8节,风向南转南东
温度 28°C
湿度 66%
气压 1018 hPa
能见度10公里或以上
多云层高于1800英尺, 积雨云.

METAR: MYNN 241400Z 16008KT 9999 BKN018CB 28/21 A3005

时间: 10:33 (14:33 UTC)

预报

该预报发布于5小时和3分钟前的09:30 UTC
预报有效从24日的 12点(UTC)到 25日的 12点(UTC)
风速10节,风向
能见度10公里或以上
少量云层高于1800英尺, 积雨云.
散云层高于2000英尺
几率 30% :
短暂存在
从 24日的 15点(UTC)到 24日的 18点(UTC)
能見度: 4800
散云层高于1500英尺, 积雨云.
多云层高于1800英尺
雷暴, 雨

TAF: MYNN 240930Z 2412/2512 17010KT 9999 FEW018CB SCT020 PROB30 TEMPO 2415/2418 4800 TSRA SCT015CB BKN018

超过4000个机场的气象观测和天气预报(METAR&TAF报告)。

可查询的气象台以黄色和红色小点在地图上表示。

将鼠标移到小点上方,可查看气象台名称。

然后点击查看天气观测和预报。

如需切换地图:点击带黑十字的绿色按钮放大地图;点击带横线的绿色按钮缩小地图;或者点击绿色箭头查看邻近地区的地图。


METAR-TAF: